Latest Weather Observations for Rhyll

IDV60901

Issued at 6:51 am EST Sunday 19 April 2015 (issued every 10 minutes, with the page automatically refreshed every 10 minutes)

About weather observations | Map of Melbourne area stations | Latest observations for Melbourne area | Other Formats
Station Details ID: 086373 Name: RHYLL Lat: -38.46 Lon: 145.31 Height: 13.4 m
Data from the previous 72 hours. | See also: Recent months at Rhyll
Date/Time
EST
Tmp

°C
App
Tmp
°C
Dew
Point
°C
Rel
Hum
%
Delta-T

°C
Wind Press
QNH
hPa
Press
MSL
hPa
Rain
since
9 am
mm
Dir
 
Spd
km/h
Gust
km/h
Spd
kts
Gust
kts
19/06:47am 10.9 4.8 6.6 75 2.0 S 28 50 15 27 1022.5 1022.5 6.2
19/06:30am 11.4 7.3 7.7 78 1.8 SSW 19 32 10 17 1021.9 1021.9 6.2
19/06:00am 10.0 4.5 7.4 84 1.2 S 26 48 14 26 1021.5 1021.5 6.2
19/05:30am 12.2 8.0 7.5 73 2.3 SSW 19 35 10 19 1020.8 1020.8 5.6
19/05:00am 12.3 7.0 6.8 69 2.6 SSW 24 37 13 20 1020.0 1020.0 5.6
19/04:30am 11.6 6.4 7.1 74 2.2 SW 24 39 13 21 1019.7 1019.7 5.6
19/04:00am 11.9 8.9 5.8 66 2.8 WSW 11 17 6 9 1019.1 1019.1 5.6
19/03:30am 12.4 7.3 6.2 66 2.9 SW 22 33 12 18 1018.8 1018.8 5.6
19/03:00am 12.1 8.1 6.6 69 2.6 SW 17 30 9 16 1018.4 1018.4 5.6
19/02:30am 12.1 8.5 6.6 69 2.6 SW 15 28 8 15 1018.3 1018.3 5.4
19/02:00am 11.4 8.4 7.5 77 1.9 WSW 13 24 7 13 1018.1 1018.1 5.4
19/01:30am 12.5 9.0 7.0 69 2.6 WSW 15 24 8 13 1018.1 1018.1 4.8
19/01:00am 11.6 6.9 7.7 77 1.9 SW 22 41 12 22 1017.9 1017.9 4.8
19/12:30am 12.6 9.9 7.3 70 2.6 WSW 11 17 6 9 1017.4 1017.4 4.8
19/12:00am 12.8 9.8 7.7 71 2.5 WSW 13 20 7 11 1017.2 1017.2 4.8
 
Date/Time
EST
Tmp

°C
App
Tmp
°C
Dew
Point
°C
Rel
Hum
%
Delta-T

°C
Wind Press
QNH
hPa
Press
MSL
hPa
Rain
since
9 am
mm
Dir
 
Spd
km/h
Gust
km/h
Spd
kts
Gust
kts
18/11:30pm 12.0 10.4 8.8 81 1.6 W 7 15 4 8 1017.1 1017.1 4.8
18/11:00pm 11.4 10.0 9.7 89 0.9 WNW 7 13 4 7 1016.9 1016.9 4.8
18/10:30pm 11.8 10.7 10.7 93 0.6 WNW 7 15 4 8 1017.0 1017.0 4.8
18/10:00pm 11.7 10.6 10.6 93 0.6 WNW 7 11 4 6 1016.7 1016.7 3.2
18/09:30pm 11.6 11.0 10.3 92 0.7 NW 4 6 2 3 1016.3 1016.3 2.6
18/09:00pm 11.1 10.0 9.9 92 0.6 WNW 6 15 3 8 1015.8 1015.8 2.4
18/08:30pm 10.8 8.6 9.4 91 0.7 WSW 11 19 6 10 1015.6 1015.6 2.0
18/08:00pm 11.3 8.6 10.2 93 0.6 WSW 15 32 8 17 1015.1 1015.1 1.2
18/07:30pm 12.1 8.8 11.0 93 0.6 WSW 19 39 10 21 1014.4 1014.4 0.4
18/07:00pm 12.1 8.1 10.5 90 0.8 SW 22 43 12 23 1013.7 1013.7 0.0
18/06:30pm 13.8 10.3 11.0 83 1.5 SW 20 35 11 19 1012.9 1012.9 0.0
18/06:03pm 14.1 9.2 11.3 83 1.5 SW 28 48 15 26 1012.4 1012.4 0.0
18/06:00pm 14.1 9.2 11.3 83 1.5 SW 28 44 15 24 1012.4 1012.4 0.0
18/05:30pm 15.2 12.0 11.4 78 2.0 WSW 19 54 10 29 1011.4 1011.4 0.0
18/05:28pm 16.1 14.0 11.3 73 2.6 W 13 54 7 29 1011.2 1011.2 0.0
18/05:00pm 18.2 17.0 11.7 66 3.6 NNW 9 17 5 9 1010.1 1010.1 0.0
18/04:30pm 18.1 15.3 11.4 65 3.7 NNW 17 22 9 12 1010.0 1010.0 0.0
18/04:00pm 18.1 14.9 11.4 65 3.7 NNW 19 22 10 12 1010.1 1010.1 0.0
18/03:30pm 18.0 15.1 11.1 64 3.7 NNW 17 26 9 14 1010.1 1010.1 0.0
18/03:00pm 17.7 13.4 10.6 63 3.8 NNW 24 28 13 15 1010.5 1010.5 0.0
18/02:30pm 18.2 15.4 10.1 59 4.3 NNW 15 22 8 12 1010.7 1010.7 0.0
18/02:00pm 17.3 14.6 10.2 63 3.8 NNW 15 26 8 14 1011.1 1011.1 0.0
18/01:30pm 17.4 15.5 10.5 64 3.7 NW 11 20 6 11 1011.4 1011.4 0.0
18/01:00pm 16.9 15.4 10.5 66 3.4 WNW 9 24 5 13 1011.5 1011.5 0.0
18/12:30pm 16.5 14.0 9.7 64 3.6 WNW 13 24 7 13 1012.3 1012.3 0.0
18/12:00pm 16.0 14.1 10.5 70 2.9 WNW 11 20 6 11 1012.6 1012.6 0.0
18/11:30am 15.1 13.8 11.3 78 2.0 WNW 9 20 5 11 1013.1 1013.1 0.0
18/11:00am 14.8 13.2 11.4 80 1.8 WNW 11 20 6 11 1013.3 1013.3 0.0
18/10:30am 15.4 13.9 12.0 80 1.8 W 11 24 6 13 1013.4 1013.4 0.0
18/10:00am 14.9 13.8 12.0 83 1.6 NW 9 20 5 11 1013.4 1013.4 0.0
18/09:30am 14.9 13.6 12.4 85 1.4 NW 11 19 6 10 1013.5 1013.5 0.0
18/09:00am 14.7 14.8 12.7 88 1.1 WNW 4 11 2 6 1013.4 1013.4 5.4
18/08:30am 14.0 13.3 12.0 88 1.1 W 7 15 4 8 1013.4 1013.4 5.4
18/08:00am 13.8 13.0 11.8 88 1.1 W 7 15 4 8 1013.3 1013.3 5.4
18/07:30am 13.7 13.1 12.3 91 0.8 W 7 15 4 8 1012.9 1012.9 5.4
18/07:00am 13.7 13.3 12.4 92 0.7 WNW 6 11 3 6 1012.5 1012.5 5.4
18/06:30am 13.5 12.9 12.2 92 0.7 WNW 7 13 4 7 1012.4 1012.4 5.4
18/06:00am 13.4 13.4 12.3 93 0.6 WNW 4 9 2 5 1012.1 1012.1 5.4
18/05:30am 13.4 13.0 12.5 94 0.5 WNW 6 15 3 8 1012.3 1012.3 5.4
18/05:00am 13.5 12.3 12.7 95 0.4 NW 11 20 6 11 1012.3 1012.3 5.4
18/04:30am 13.7 13.9 13.1 96 0.3 NW 4 9 2 5 1012.0 1012.0 5.4
18/04:00am 13.9 13.6 13.4 97 0.3 NNW 7 13 4 7 1011.9 1011.9 5.2
18/03:30am 13.8 14.1 13.3 97 0.3 NW 4 6 2 3 1012.0 1012.0 5.2
18/03:00am 13.4 14.3 12.9 97 0.3 CALM 0 0 0 0 1012.4 1012.4 5.2
18/02:30am 13.4 14.3 12.9 97 0.3 CALM 0 0 0 0 1012.4 1012.4 5.2
18/02:00am 13.3 14.2 12.8 97 0.3 CALM 0 0 0 0 1012.7 1012.7 4.8
18/01:30am 13.2 14.0 12.7 97 0.3 CALM 0 0 0 0 1013.2 1013.2 4.6
18/01:00am 13.1 13.5 12.6 97 0.3 WNW 2 6 1 3 1013.6 1013.6 4.2
18/12:30am 13.2 13.7 12.7 97 0.3 WNW 2 6 1 3 1013.8 1013.8 3.8
18/12:00am 13.1 13.2 12.6 97 0.3 NNW 4 9 2 5 1014.3 1014.3 3.0
 
Date/Time
EST
Tmp

°C
App
Tmp
°C
Dew
Point
°C
Rel
Hum
%
Delta-T

°C
Wind Press
QNH
hPa
Press
MSL
hPa
Rain
since
9 am
mm
Dir
 
Spd
km/h
Gust
km/h
Spd
kts
Gust
kts
17/11:30pm 13.0 12.6 12.4 96 0.3 N 6 9 3 5 1014.5 1014.5 2.6
17/11:00pm 13.0 12.0 12.2 95 0.4 N 9 13 5 7 1015.0 1015.0 2.2
17/10:30pm 12.9 12.4 12.1 95 0.4 N 6 9 3 5 1015.3 1015.3 2.2
17/10:00pm 13.1 12.0 11.8 92 0.7 NNW 9 15 5 8 1015.8 1015.8 1.4
17/09:30pm 13.8 13.1 12.0 89 1.0 N 7 13 4 7 1015.7 1015.7 1.4
17/09:00pm 13.8 13.6 11.8 88 1.1 N 4 7 2 4 1015.8 1015.8 1.2
17/08:30pm 13.4 12.2 11.6 89 1.0 NNE 9 15 5 8 1016.0 1016.0 1.2
17/08:00pm 13.6 12.7 11.3 86 1.2 N 7 13 4 7 1016.4 1016.4 1.2
17/07:30pm 13.6 12.8 11.1 85 1.3 N 6 9 3 5 1016.7 1016.7 1.2
17/07:00pm 13.6 12.4 11.5 87 1.1 N 9 13 5 7 1016.6 1016.6 1.2
17/06:30pm 13.6 12.8 11.8 89 1.0 NNE 7 11 4 6 1016.6 1016.6 1.2
17/06:00pm 13.7 14.0 12.1 90 0.9 NW 2 6 1 3 1016.6 1016.6 1.0
17/05:30pm 14.3 13.9 12.3 88 1.1 WNW 6 11 3 6 1018.0 1018.0 0.6
17/05:00pm 14.7 15.3 12.0 84 1.5 CALM 0 0 0 0 1017.3 1017.3 0.2
17/04:30pm 15.6 15.9 11.0 74 2.5 CALM 0 0 0 0 1017.7 1017.7 0.0
17/04:00pm 15.8 15.6 10.3 70 2.9 NW 2 4 1 2 1017.9 1017.9 0.0
17/03:30pm 15.8 15.4 9.9 68 3.1 W 2 6 1 3 1017.9 1017.9 0.0
17/03:00pm 16.2 15.5 10.1 67 3.2 NNW 4 6 2 3 1018.1 1018.1 0.0
17/02:30pm 16.8 16.3 10.6 67 3.3 NE 4 6 2 3 1018.4 1018.4 0.0
17/02:00pm 16.8 16.1 10.0 64 3.6 NE 4 6 2 3 1018.6 1018.6 0.0
17/01:30pm 17.6 16.7 10.5 63 3.8 ENE 6 7 3 4 1018.9 1018.9 0.0
17/01:00pm 18.0 16.5 10.4 61 4.1 ENE 9 11 5 6 1019.4 1019.4 0.0
17/12:30pm 16.9 16.1 9.6 62 3.8 NNE 4 6 2 3 1020.5 1020.5 0.0
17/12:00pm 18.5 16.9 10.3 59 4.4 NE 9 11 5 6 1021.3 1021.3 0.0
17/11:30am 18.4 16.6 11.0 62 4.0 NE 11 13 6 7 1022.1 1022.1 0.0
17/11:00am 17.3 15.6 11.3 68 3.2 ENE 11 13 6 7 1022.7 1022.7 0.0
17/10:30am 16.3 14.5 10.8 70 2.9 NE 11 15 6 8 1023.3 1023.3 0.0
17/10:00am 15.8 13.7 11.2 74 2.5 NE 13 17 7 9 1023.9 1023.9 0.0
17/09:30am 14.7 12.9 10.9 78 2.0 ENE 11 13 6 7 1024.2 1024.2 0.0
17/09:00am 14.2 13.4 11.0 81 1.7 ENE 6 9 3 5 1024.4 1024.4 0.2
17/08:30am 13.6 13.1 10.8 83 1.5 NE 4 4 2 2 1024.7 1024.7 0.2
17/08:00am 13.0 12.0 10.2 83 1.4 NE 6 7 3 4 1024.3 1024.3 0.2
17/07:30am 12.2 11.0 9.4 83 1.4 NNE 6 7 3 4 1024.0 1024.0 0.2
17/07:00am 11.7 10.4 9.3 85 1.2 NE 6 9 3 5 1023.7 1023.7 0.2
17/06:30am 11.9 10.0 9.1 83 1.4 NE 9 11 5 6 1023.7 1023.7 0.2
17/06:00am 11.0 9.6 8.8 86 1.1 NE 6 9 3 5 1023.8 1023.8 0.2
17/05:30am 11.1 10.0 8.5 84 1.3 NE 4 6 2 3 1023.7 1023.7 0.2
17/05:00am 11.8 10.8 9.0 83 1.4 NNE 4 6 2 3 1023.7 1023.7 0.2
17/04:30am 11.7 10.4 9.3 85 1.2 NNE 6 9 3 5 1023.7 1023.7 0.2
17/04:00am 11.6 10.8 9.5 87 1.1 NE 4 7 2 4 1023.2 1023.2 0.2
17/03:30am 11.9 10.7 9.6 86 1.2 NE 6 6 3 3 1023.5 1023.5 0.2
17/03:00am 12.4 11.6 9.6 83 1.4 NE 4 7 2 4 1023.5 1023.5 0.2
17/02:30am 12.6 10.9 9.8 83 1.4 NE 9 13 5 7 1023.8 1023.8 0.2
17/02:00am 13.1 11.0 9.9 81 1.6 NE 11 15 6 8 1024.3 1024.3 0.2
17/01:30am 12.6 11.7 7.9 73 2.3 WNW 2 4 1 2 1024.9 1024.9 0.2
17/01:00am 12.6 11.4 8.1 74 2.2 W 4 6 2 3 1025.4 1025.4 0.2
17/12:30am 12.3 11.1 8.0 75 2.1 WSW 4 6 2 3 1025.7 1025.7 0.2
17/12:00am 12.9 11.7 8.2 73 2.3 W 4 6 2 3 1025.9 1025.9 0.2
 
Date/Time
EST
Tmp

°C
App
Tmp
°C
Dew
Point
°C
Rel
Hum
%
Delta-T

°C
Wind Press
QNH
hPa
Press
MSL
hPa
Rain
since
9 am
mm
Dir
 
Spd
km/h
Gust
km/h
Spd
kts
Gust
kts
16/11:30pm 12.9 11.7 8.2 73 2.3 WSW 4 6 2 3 1026.2 1026.2 0.2
16/11:00pm 12.9 11.7 8.2 73 2.3 WSW 4 6 2 3 1026.2 1026.2 0.2
16/10:30pm 13.4 11.9 8.5 72 2.4 SW 6 9 3 5 1026.3 1026.3 0.2
16/10:00pm 13.4 11.9 8.3 71 2.5 WSW 6 9 3 5 1026.5 1026.5 0.2
16/09:30pm 13.4 11.9 8.3 71 2.5 WSW 6 7 3 4 1026.3 1026.3 0.2
16/09:00pm 13.2 11.7 8.3 72 2.4 WSW 6 7 3 4 1026.4 1026.4 0.2
16/08:30pm 13.7 12.2 8.3 70 2.7 SW 6 9 3 5 1026.5 1026.5 0.2
16/08:00pm 13.5 12.0 8.6 72 2.4 WSW 6 7 3 4 1026.2 1026.2 0.2
16/07:30pm 13.4 12.3 8.3 71 2.5 WSW 4 6 2 3 1025.7 1025.7 0.2
16/07:00pm 13.4 11.8 8.0 70 2.7 SW 6 6 3 3 1025.6 1025.6 0.2
16/06:30pm 13.6 12.0 8.0 69 2.8 SW 6 11 3 6 1025.5 1025.5 0.2
16/06:00pm 13.8 12.0 7.8 67 2.9 SW 7 11 4 6 1025.2 1025.2 0.2
16/05:30pm 14.1 11.8 7.6 65 3.2 SW 9 15 5 8 1025.2 1025.2 0.2
16/05:00pm 14.4 12.6 7.9 65 3.2 SSW 7 13 4 7 1025.2 1025.2 0.2
16/04:30pm 14.9 12.8 8.2 64 3.4 SSW 9 19 5 10 1025.1 1025.1 0.2
16/04:00pm 15.2 13.2 8.7 65 3.3 SW 9 19 5 10 1025.0 1025.0 0.2
16/03:30pm 15.5 13.1 8.5 63 3.5 SSW 11 20 6 11 1024.8 1024.8 0.2
16/03:00pm 16.0 13.6 8.5 61 3.8 SSW 11 28 6 15 1024.8 1024.8 0.2
16/02:30pm 16.5 12.9 8.2 58 4.2 WSW 17 32 9 17 1024.6 1024.6 0.2
16/02:00pm 16.9 14.8 9.6 62 3.8 SW 11 22 6 12 1024.4 1024.4 0.0
16/01:30pm 16.1 12.8 9.5 65 3.4 SW 17 28 9 15 1024.7 1024.7 0.0
16/01:00pm 17.3 14.8 9.7 61 4.0 SW 13 22 7 12 1024.8 1024.8 0.0
16/12:30pm 17.1 14.1 9.3 60 4.1 SW 15 24 8 13 1025.0 1025.0 0.0
16/12:00pm 16.7 13.2 8.7 59 4.1 SW 17 24 9 13 1025.0 1025.0 0.0
16/11:30am 16.6 13.2 9.1 61 3.9 SW 17 28 9 15 1025.2 1025.2 0.0
16/11:00am 16.5 12.9 9.7 64 3.5 SW 19 30 10 16 1025.3 1025.3 0.0
16/10:30am 16.5 13.2 9.4 63 3.7 SW 17 30 9 16 1025.2 1025.2 0.0
16/10:00am 17.0 13.6 10.4 65 3.5 SW 19 33 10 18 1024.9 1024.9 0.0
16/09:30am 16.4 12.9 10.9 70 2.9 SW 20 35 11 19 1024.9 1024.9 0.0
16/09:00am 16.1 13.0 11.5 74 2.5 SW 19 30 10 16 1024.6 1024.6 1.4
16/08:30am 15.5 13.9 12.8 84 1.5 SW 13 20 7 11 1024.3 1024.3 1.4
16/08:00am 14.6 12.2 12.8 89 1.0 SW 17 30 9 16 1024.0 1024.0 1.4
16/07:30am 14.9 13.9 13.4 91 0.8 SW 11 19 6 10 1023.8 1023.8 1.4
16/07:00am 15.4 14.0 13.4 88 1.1 SW 13 24 7 13 1023.4 1023.4 1.2

Latest Capital City Observations: Canberra | Sydney | Melbourne | Brisbane | Adelaide | Perth | Hobart | Darwin

Other Formats:

Comma delimited format used in spreadsheet applications
http://www.bom.gov.au/fwo/IDV60901/IDV60901.94892.axf

JavaScript Object Notation format (JSON) in row-major order
http://www.bom.gov.au/fwo/IDV60901/IDV60901.94892.json